createdAt,value
2023-03-21T08:28:08.738Z,101779.66
2023-03-21T08:38:14.474Z,101786.28
2023-03-21T08:40:42.154Z,101795.41
2023-03-21T08:43:09.383Z,101780.41
2023-03-21T08:45:36.756Z,101780.66
2023-03-21T08:48:04.186Z,101795.19
2023-03-21T08:50:32.056Z,101803.13
2023-03-21T08:52:59.211Z,101804.38
2023-03-21T08:55:26.351Z,101782.44
2023-03-21T08:57:53.338Z,101798.59
2023-03-21T09:00:21.988Z,101782.50
2023-03-21T09:02:52.028Z,101789.94
2023-03-21T09:05:19.792Z,101782.50
2023-03-21T09:07:47.149Z,101788.28
2023-03-21T09:10:22.125Z,101771.25
2023-03-21T09:12:51.593Z,101772.91
2023-03-21T09:15:22.285Z,101770.97
2023-03-21T09:17:53.217Z,101769.66
2023-03-21T09:20:26.523Z,101785.47
2023-03-21T09:22:54.019Z,101774.28
2023-03-21T09:25:21.711Z,101774.59
2023-03-21T09:27:49.027Z,101773.63
2023-03-21T09:30:19.078Z,101773.75
2023-03-21T09:32:48.780Z,101789.00
2023-03-21T09:35:20.565Z,101785.97
2023-03-21T09:37:49.242Z,101781.34
2023-03-21T09:40:18.976Z,101788.13
2023-03-21T09:43:16.939Z,101788.38
2023-03-21T09:45:58.286Z,101793.53
2023-03-21T09:48:57.305Z,101783.59
2023-03-21T09:51:29.117Z,101789.41
2023-03-21T09:53:59.190Z,101794.81
2023-03-21T09:56:26.354Z,101773.25
2023-03-21T09:59:01.857Z,101786.06
2023-03-21T10:01:33.237Z,101788.56
2023-03-21T10:04:06.892Z,101794.66
2023-03-21T10:06:40.751Z,101781.81
2023-03-21T10:09:15.674Z,101788.38
2023-03-21T10:11:59.690Z,101780.41
2023-03-21T10:14:33.655Z,101800.72
2023-03-21T10:17:33.648Z,101788.84
2023-03-21T10:20:21.727Z,101791.13
2023-03-21T10:23:02.959Z,101785.72
2023-03-21T10:25:37.772Z,101783.47
2023-03-21T10:28:07.745Z,101785.25
2023-03-21T10:30:42.658Z,101783.94
2023-03-21T10:33:16.289Z,101793.97
2023-03-21T10:35:47.233Z,101794.81
2023-03-21T10:38:18.336Z,101785.75
2023-03-21T10:40:45.929Z,101782.59
2023-03-21T10:43:28.341Z,101792.63
2023-03-21T10:45:56.430Z,101774.91
2023-03-21T10:48:24.802Z,101778.63
2023-03-21T10:50:55.583Z,101776.34
2023-03-21T10:53:29.188Z,101777.31
2023-03-21T10:55:59.955Z,101765.06
2023-03-21T10:58:35.957Z,101771.50
2023-03-21T11:01:07.171Z,101758.28
2023-03-21T11:03:38.773Z,101763.03
2023-03-21T11:06:07.327Z,101760.38
2023-03-21T11:09:04.962Z,101750.78
2023-03-21T11:11:39.188Z,101758.03
2023-03-21T11:14:25.155Z,101748.34
2023-03-21T11:16:52.392Z,101738.59
2023-03-21T11:19:27.771Z,101736.94
2023-03-21T11:21:58.409Z,101735.72
2023-03-21T11:24:31.036Z,101745.88
2023-03-21T11:26:59.607Z,101745.88
2023-03-21T11:29:31.706Z,101749.56
2023-03-21T11:32:02.507Z,101744.31
2023-03-21T11:34:38.863Z,101736.88
2023-03-21T11:37:07.264Z,101738.50
2023-03-21T11:39:41.555Z,101744.31
2023-03-21T11:42:30.859Z,101739.03
2023-03-21T11:45:02.937Z,101738.63
2023-03-21T11:47:30.255Z,101721.91
2023-03-21T11:50:04.681Z,101732.78
2023-03-21T11:52:50.890Z,101730.16
2023-03-21T11:56:28.412Z,101732.31
2023-03-21T11:59:16.477Z,101716.59
2023-03-21T12:01:57.488Z,101710.13
2023-03-21T12:04:39.830Z,101702.63
2023-03-21T12:07:39.208Z,101708.38
2023-03-21T12:10:21.415Z,101708.09
2023-03-21T12:13:12.808Z,101700.03
2023-03-21T12:16:13.891Z,101691.44
2023-03-21T12:18:40.935Z,101679.66
2023-03-21T12:21:16.331Z,101679.34
2023-03-21T12:24:00.565Z,101654.22
2023-03-21T12:26:32.032Z,101649.97
2023-03-21T12:29:19.778Z,101663.91
2023-03-21T12:31:56.403Z,101668.66
2023-03-21T12:34:29.245Z,101658.94
2023-03-21T12:37:20.463Z,101662.16
2023-03-21T12:39:51.471Z,101651.06
2023-03-21T12:42:42.730Z,101652.75
2023-03-21T12:45:24.712Z,101643.41
2023-03-21T12:51:33.108Z,101636.50
2023-03-21T12:54:09.329Z,101641.91
2023-03-21T12:56:58.360Z,101641.81
2023-03-21T12:59:59.386Z,101638.81
2023-03-21T13:02:41.067Z,101630.56
2023-03-21T13:05:21.029Z,101624.47
2023-03-21T13:07:54.459Z,101627.66
2023-03-21T13:10:22.963Z,101631.44
2023-03-21T13:13:14.106Z,101624.16
2023-03-21T13:16:17.426Z,101633.13
2023-03-21T13:19:07.948Z,101634.69
2023-03-21T13:22:02.726Z,101631.00
2023-03-21T13:24:34.327Z,101618.47
2023-03-21T13:27:27.852Z,101608.84
2023-03-21T13:30:01.345Z,101607.97
2023-03-21T13:32:41.145Z,101615.25
2023-03-21T13:35:33.204Z,101616.41
2023-03-21T13:38:03.753Z,101620.53
2023-03-21T13:40:50.740Z,101613.09
2023-03-21T13:43:51.999Z,101614.09
2023-03-21T13:46:34.122Z,101607.69
2023-03-21T13:49:10.912Z,101605.16
2023-03-21T13:51:43.838Z,101599.81
2023-03-21T13:54:19.384Z,101598.53
2023-03-21T13:56:46.866Z,101599.06
2023-03-21T13:59:39.463Z,101601.88
2023-03-21T14:02:13.130Z,101590.25
2023-03-21T14:04:53.934Z,101577.97
2023-03-21T14:07:33.130Z,101589.31
2023-03-21T14:10:06.163Z,101563.84
2023-03-21T14:12:43.002Z,101577.53
2023-03-21T14:15:23.376Z,101560.22
2023-03-21T14:18:15.825Z,101568.59
2023-03-21T14:20:58.894Z,101563.50
2023-03-21T14:23:26.017Z,101567.78
2023-03-21T14:25:53.512Z,101567.44
2023-03-21T14:28:24.321Z,101571.47
2023-03-21T14:31:01.714Z,101561.72
2023-03-21T14:33:36.884Z,101559.34
2023-03-21T14:36:14.093Z,101559.75
2023-03-21T14:38:41.872Z,101574.50
2023-03-21T14:41:29.626Z,101562.72
2023-03-21T14:44:17.692Z,101564.00
2023-03-21T14:46:45.386Z,101556.53
2023-03-21T14:49:21.153Z,101546.91
2023-03-21T14:51:51.042Z,101544.41
2023-03-21T14:54:19.832Z,101549.03
2023-03-21T14:56:51.047Z,101549.69
2023-03-21T14:59:22.766Z,101535.41
2023-03-21T15:01:52.575Z,101533.47
2023-03-21T15:04:21.678Z,101523.06
2023-03-21T15:06:57.637Z,101524.78
2023-03-21T15:09:27.660Z,101530.69
2023-03-21T15:12:09.649Z,101538.94
2023-03-21T15:14:38.316Z,101523.03
2023-03-21T15:17:07.845Z,101513.97
2023-03-21T15:19:38.566Z,101519.16
2023-03-21T15:22:16.662Z,101516.91
2023-03-21T15:24:53.539Z,101526.28
2023-03-21T15:27:26.847Z,101530.53
2023-03-21T15:29:54.510Z,101531.78
2023-03-21T15:32:31.127Z,101511.69
2023-03-21T15:35:24.060Z,101531.34
2023-03-21T15:37:57.396Z,101539.97
2023-03-21T15:40:33.437Z,101530.84
2023-03-21T15:43:18.406Z,101524.53
2023-03-21T15:45:56.510Z,101532.63
2023-03-21T15:48:29.019Z,101516.91
2023-03-21T15:50:56.310Z,101528.38
2023-03-21T15:53:24.466Z,101517.63
2023-03-21T15:55:57.260Z,101534.09
2023-03-21T15:58:27.225Z,101526.06
2023-03-21T16:00:57.329Z,101531.50
2023-03-21T16:03:27.780Z,101542.44
2023-03-21T16:06:14.547Z,101533.75
2023-03-21T16:09:04.994Z,101529.09
2023-03-21T16:11:49.934Z,101531.50
2023-03-21T16:14:18.938Z,101530.84
2023-03-21T16:16:46.808Z,101523.09
2023-03-21T16:19:14.775Z,101539.84
2023-03-21T16:21:42.455Z,101520.31
2023-03-21T16:24:11.744Z,101530.03
2023-03-21T16:26:46.076Z,101536.56
2023-03-21T16:29:14.938Z,101523.00
2023-03-21T16:31:42.383Z,101537.72
2023-03-21T16:34:11.054Z,101532.13
2023-03-21T16:36:40.605Z,101541.22
2023-03-21T16:39:26.599Z,101553.69
2023-03-21T16:42:47.670Z,101547.50
2023-03-21T16:44:48.549Z,101549.00
2023-03-21T16:47:21.189Z,101560.75
2023-03-21T16:49:48.355Z,101555.59
2023-03-21T16:52:16.002Z,101550.59
2023-03-21T16:54:43.554Z,101558.38
2023-03-21T16:57:30.954Z,101559.28
2023-03-21T16:59:58.074Z,101547.78
2023-03-21T17:02:26.941Z,101559.78
2023-03-21T17:04:53.965Z,101549.38
2023-03-21T17:07:21.069Z,101536.72
2023-03-21T17:09:48.365Z,101545.78
2023-03-21T17:12:16.765Z,101552.66
2023-03-21T17:14:45.404Z,101567.03
2023-03-21T17:17:14.103Z,101566.22
2023-03-21T17:19:41.711Z,101557.75
2023-03-21T17:22:10.890Z,101539.75
2023-03-21T17:24:41.670Z,101554.88
2023-03-21T17:27:12.019Z,101559.16
2023-03-21T17:29:39.043Z,101545.44
2023-03-21T17:32:06.139Z,101559.88
2023-03-21T17:34:33.167Z,101552.53
2023-03-21T17:37:00.419Z,101539.16
2023-03-21T17:39:28.919Z,101550.81
2023-03-21T17:41:57.243Z,101534.75
2023-03-21T17:44:24.262Z,101529.22
2023-03-21T17:46:52.220Z,101538.06
2023-03-21T17:49:20.258Z,101537.81
2023-03-21T17:51:47.291Z,101539.31
2023-03-21T17:54:14.840Z,101541.00
2023-03-21T17:56:42.331Z,101550.16
2023-03-21T17:59:15.085Z,101540.53
2023-03-21T18:01:43.206Z,101541.50
2023-03-21T18:04:11.276Z,101539.84
2023-03-21T18:06:38.541Z,101528.03
2023-03-21T18:09:12.131Z,101537.25
2023-03-21T18:11:40.504Z,101539.06
2023-03-21T18:14:16.208Z,101549.75
2023-03-21T18:16:50.870Z,101551.06
2023-03-21T18:19:21.479Z,101545.66
2023-03-21T18:21:48.853Z,101542.06
2023-03-21T18:24:16.153Z,101552.03
2023-03-21T18:26:44.097Z,101550.75
2023-03-21T18:30:17.834Z,101558.78
2023-03-21T18:32:07.379Z,101555.16
2023-03-21T18:34:37.158Z,101556.66
2023-03-21T18:37:07.615Z,101546.66
2023-03-21T18:39:35.021Z,101561.56
2023-03-21T18:42:03.780Z,101550.78
2023-03-21T18:44:40.756Z,101550.78
2023-03-21T18:47:08.735Z,101568.47
2023-03-21T18:50:05.971Z,101570.75
2023-03-21T18:52:23.025Z,101579.81
2023-03-21T18:54:50.380Z,101570.44
2023-03-21T18:57:35.696Z,101568.44
2023-03-21T19:00:17.599Z,101569.31
2023-03-21T19:02:49.095Z,101575.19
2023-03-21T19:05:20.294Z,101570.75
2023-03-21T19:07:48.233Z,101565.50
2023-03-21T19:10:19.959Z,101562.22
2023-03-21T19:12:52.698Z,101563.88
2023-03-21T19:15:21.997Z,101581.91
2023-03-21T19:20:45.272Z,101575.66
2023-03-21T19:23:12.716Z,101575.66
2023-03-21T19:25:39.948Z,101569.13
2023-03-21T19:28:07.059Z,101573.53
2023-03-21T19:30:35.029Z,101575.81
2023-03-21T19:33:02.233Z,101573.69
2023-03-21T19:35:29.276Z,101565.19
2023-03-21T19:37:56.303Z,101581.38
2023-03-21T19:40:24.180Z,101571.25
2023-03-21T19:42:51.518Z,101551.91
2023-03-21T19:45:18.580Z,101572.03
2023-03-21T19:47:46.503Z,101565.47
2023-03-21T19:53:00.770Z,101577.72
2023-03-21T19:55:27.798Z,101557.22
2023-03-21T19:57:55.105Z,101572.13
2023-03-21T20:00:22.656Z,101562.28
2023-03-21T20:02:49.825Z,101563.28
2023-03-21T20:05:20.726Z,101572.94
2023-03-21T20:07:48.018Z,101560.31
2023-03-21T20:10:15.082Z,101555.34
2023-03-21T20:12:42.064Z,101568.78
2023-03-21T20:15:17.636Z,101565.16
2023-03-21T20:17:48.395Z,101563.34
2023-03-21T20:20:18.364Z,101572.19
2023-03-21T20:25:39.231Z,101550.03
2023-03-21T20:28:15.820Z,101567.72
2023-03-21T20:30:53.387Z,101562.47
2023-03-21T20:33:20.793Z,101573.94
2023-03-21T20:38:37.369Z,101562.72
2023-03-21T20:41:06.437Z,101558.47
2023-03-21T20:44:28.213Z,101565.19
2023-03-21T20:46:21.101Z,101575.94
2023-03-21T20:48:49.894Z,101562.03
2023-03-21T20:52:29.431Z,101567.09
2023-03-21T20:54:05.889Z,101588.53
2023-03-21T20:56:33.428Z,101587.53
2023-03-21T20:59:15.002Z,101564.56
